sensor_id;sensor_type;location;lat;lon;timestamp;P1;durP1;ratioP1;P2;durP2;ratioP2
30818;SDS011;17546;42.674;23.284;2023-03-01T00:01:51;7.15;;;4.47;;
30818;SDS011;17546;42.674;23.284;2023-03-01T00:04:17;7.13;;;4.47;;
30818;SDS011;17546;42.674;23.284;2023-03-01T00:06:42;7.72;;;4.65;;
30818;SDS011;17546;42.674;23.284;2023-03-01T00:09:11;6.15;;;4.15;;
30818;SDS011;17546;42.674;23.284;2023-03-01T00:11:37;6.47;;;4.50;;
30818;SDS011;17546;42.674;23.284;2023-03-01T00:14:03;7.45;;;4.72;;
30818;SDS011;17546;42.674;23.284;2023-03-01T00:16:33;6.35;;;4.40;;
30818;SDS011;17546;42.674;23.284;2023-03-01T00:19:00;7.78;;;4.63;;
30818;SDS011;17546;42.674;23.284;2023-03-01T00:21:26;7.18;;;4.78;;
30818;SDS011;17546;42.674;23.284;2023-03-01T00:23:52;7.55;;;4.28;;
30818;SDS011;17546;42.674;23.284;2023-03-01T00:26:19;6.47;;;4.60;;
30818;SDS011;17546;42.674;23.284;2023-03-01T00:28:46;6.22;;;4.60;;
30818;SDS011;17546;42.674;23.284;2023-03-01T00:31:16;6.57;;;4.40;;
30818;SDS011;17546;42.674;23.284;2023-03-01T00:33:45;5.45;;;4.03;;
30818;SDS011;17546;42.674;23.284;2023-03-01T00:36:12;5.90;;;4.38;;
30818;SDS011;17546;42.674;23.284;2023-03-01T00:38:41;6.47;;;3.72;;
30818;SDS011;17546;42.674;23.284;2023-03-01T00:41:09;5.10;;;3.67;;
30818;SDS011;17546;42.674;23.284;2023-03-01T00:43:36;5.32;;;3.70;;
30818;SDS011;17546;42.674;23.284;2023-03-01T00:46:06;5.13;;;3.70;;
30818;SDS011;17546;42.674;23.284;2023-03-01T00:48:34;6.43;;;3.55;;
30818;SDS011;17546;42.674;23.284;2023-03-01T00:51:04;5.40;;;3.85;;
30818;SDS011;17546;42.674;23.284;2023-03-01T00:53:34;5.53;;;3.40;;
30818;SDS011;17546;42.674;23.284;2023-03-01T00:55:59;4.57;;;3.40;;
30818;SDS011;17546;42.674;23.284;2023-03-01T00:58:25;4.07;;;3.38;;
30818;SDS011;17546;42.674;23.284;2023-03-01T01:00:51;5.07;;;3.60;;
30818;SDS011;17546;42.674;23.284;2023-03-01T01:03:17;5.28;;;3.45;;
30818;SDS011;17546;42.674;23.284;2023-03-01T01:05:43;4.10;;;2.83;;
30818;SDS011;17546;42.674;23.284;2023-03-01T01:08:08;4.93;;;3.17;;
30818;SDS011;17546;42.674;23.284;2023-03-01T01:10:34;4.85;;;3.70;;
30818;SDS011;17546;42.674;23.284;2023-03-01T01:13:00;5.20;;;3.38;;
30818;SDS011;17546;42.674;23.284;2023-03-01T01:15:25;3.83;;;3.08;;
30818;SDS011;17546;42.674;23.284;2023-03-01T01:17:51;4.20;;;2.90;;
30818;SDS011;17546;42.674;23.284;2023-03-01T01:20:17;3.45;;;2.60;;
30818;SDS011;17546;42.674;23.284;2023-03-01T01:22:43;4.53;;;2.95;;
30818;SDS011;17546;42.674;23.284;2023-03-01T01:25:08;3.80;;;2.95;;
30818;SDS011;17546;42.674;23.284;2023-03-01T01:27:34;3.70;;;2.72;;
30818;SDS011;17546;42.674;23.284;2023-03-01T01:29:59;3.25;;;2.70;;
30818;SDS011;17546;42.674;23.284;2023-03-01T01:32:25;7.57;;;2.70;;
30818;SDS011;17546;42.674;23.284;2023-03-01T01:34:50;4.13;;;2.80;;
30818;SDS011;17546;42.674;23.284;2023-03-01T01:37:16;3.10;;;2.50;;
30818;SDS011;17546;42.674;23.284;2023-03-01T01:39:41;3.50;;;2.20;;
30818;SDS011;17546;42.674;23.284;2023-03-01T01:42:11;2.70;;;2.17;;
30818;SDS011;17546;42.674;23.284;2023-03-01T01:44:42;2.75;;;2.20;;
30818;SDS011;17546;42.674;23.284;2023-03-01T01:47:12;3.30;;;2.50;;
30818;SDS011;17546;42.674;23.284;2023-03-01T01:49:56;2.22;;;1.90;;
30818;SDS011;17546;42.674;23.284;2023-03-01T01:52:24;2.72;;;2.10;;
30818;SDS011;17546;42.674;23.284;2023-03-01T01:57:33;2.75;;;1.83;;
30818;SDS011;17546;42.674;23.284;2023-03-01T02:00:09;2.28;;;1.90;;
30818;SDS011;17546;42.674;23.284;2023-03-01T02:02:38;1.92;;;1.70;;
30818;SDS011;17546;42.674;23.284;2023-03-01T02:05:08;2.30;;;1.90;;
30818;SDS011;17546;42.674;23.284;2023-03-01T02:07:39;2.70;;;1.77;;
30818;SDS011;17546;42.674;23.284;2023-03-01T02:10:07;2.10;;;1.70;;
30818;SDS011;17546;42.674;23.284;2023-03-01T02:12:33;2.15;;;1.73;;
30818;SDS011;17546;42.674;23.284;2023-03-01T02:15:00;3.97;;;1.60;;
30818;SDS011;17546;42.674;23.284;2023-03-01T02:17:25;2.50;;;2.08;;
30818;SDS011;17546;42.674;23.284;2023-03-01T02:22:35;1.85;;;1.63;;
30818;SDS011;17546;42.674;23.284;2023-03-01T02:25:20;1.98;;;1.67;;
30818;SDS011;17546;42.674;23.284;2023-03-01T02:27:55;2.17;;;1.50;;
30818;SDS011;17546;42.674;23.284;2023-03-01T02:30:30;2.53;;;1.60;;
30818;SDS011;17546;42.674;23.284;2023-03-01T02:32:57;3.60;;;1.80;;
30818;SDS011;17546;42.674;23.284;2023-03-01T02:35:27;2.20;;;2.00;;
30818;SDS011;17546;42.674;23.284;2023-03-01T02:37:55;1.58;;;1.45;;
30818;SDS011;17546;42.674;23.284;2023-03-01T02:40:22;2.83;;;1.90;;
30818;SDS011;17546;42.674;23.284;2023-03-01T02:42:52;2.28;;;1.88;;
30818;SDS011;17546;42.674;23.284;2023-03-01T02:45:20;1.70;;;1.60;;
30818;SDS011;17546;42.674;23.284;2023-03-01T02:47:46;2.45;;;1.80;;
30818;SDS011;17546;42.674;23.284;2023-03-01T02:53:52;2.13;;;1.92;;
30818;SDS011;17546;42.674;23.284;2023-03-01T02:55:52;2.75;;;2.00;;
30818;SDS011;17546;42.674;23.284;2023-03-01T02:58:20;3.30;;;2.15;;
30818;SDS011;17546;42.674;23.284;2023-03-01T03:00:45;3.22;;;2.50;;
30818;SDS011;17546;42.674;23.284;2023-03-01T03:03:19;2.88;;;2.30;;
30818;SDS011;17546;42.674;23.284;2023-03-01T03:05:45;2.78;;;2.08;;
30818;SDS011;17546;42.674;23.284;2023-03-01T03:08:13;2.50;;;2.20;;
30818;SDS011;17546;42.674;23.284;2023-03-01T03:10:41;3.03;;;2.50;;
30818;SDS011;17546;42.674;23.284;2023-03-01T03:13:11;3.13;;;2.47;;
30818;SDS011;17546;42.674;23.284;2023-03-01T03:15:38;4.07;;;2.95;;
30818;SDS011;17546;42.674;23.284;2023-03-01T03:18:06;2.67;;;2.47;;
30818;SDS011;17546;42.674;23.284;2023-03-01T03:20:34;4.22;;;3.00;;
30818;SDS011;17546;42.674;23.284;2023-03-01T03:23:01;4.30;;;3.20;;
30818;SDS011;17546;42.674;23.284;2023-03-01T03:25:27;4.50;;;3.38;;
30818;SDS011;17546;42.674;23.284;2023-03-01T03:27:54;4.00;;;3.30;;
30818;SDS011;17546;42.674;23.284;2023-03-01T03:30:22;4.28;;;3.50;;
30818;SDS011;17546;42.674;23.284;2023-03-01T03:32:50;3.75;;;3.20;;
30818;SDS011;17546;42.674;23.284;2023-03-01T03:35:28;6.55;;;3.75;;
30818;SDS011;17546;42.674;23.284;2023-03-01T03:37:55;4.43;;;3.63;;
30818;SDS011;17546;42.674;23.284;2023-03-01T03:40:34;4.60;;;3.78;;
30818;SDS011;17546;42.674;23.284;2023-03-01T03:43:02;6.88;;;4.32;;
30818;SDS011;17546;42.674;23.284;2023-03-01T03:45:28;5.70;;;3.90;;
30818;SDS011;17546;42.674;23.284;2023-03-01T03:47:54;4.60;;;3.63;;
30818;SDS011;17546;42.674;23.284;2023-03-01T03:50:19;4.70;;;3.97;;
30818;SDS011;17546;42.674;23.284;2023-03-01T03:52:45;5.70;;;3.95;;
30818;SDS011;17546;42.674;23.284;2023-03-01T03:55:11;9.70;;;3.70;;
30818;SDS011;17546;42.674;23.284;2023-03-01T03:57:37;4.78;;;3.42;;
30818;SDS011;17546;42.674;23.284;2023-03-01T04:00:04;5.32;;;3.58;;
30818;SDS011;17546;42.674;23.284;2023-03-01T04:02:37;5.53;;;3.88;;
30818;SDS011;17546;42.674;23.284;2023-03-01T04:05:04;5.38;;;4.07;;
30818;SDS011;17546;42.674;23.284;2023-03-01T04:07:30;4.53;;;3.70;;
30818;SDS011;17546;42.674;23.284;2023-03-01T04:09:55;5.03;;;3.58;;
30818;SDS011;17546;42.674;23.284;2023-03-01T04:12:20;8.32;;;3.53;;
30818;SDS011;17546;42.674;23.284;2023-03-01T04:14:48;4.60;;;3.50;;
30818;SDS011;17546;42.674;23.284;2023-03-01T04:17:13;5.72;;;3.55;;
30818;SDS011;17546;42.674;23.284;2023-03-01T04:19:39;4.72;;;3.38;;
30818;SDS011;17546;42.674;23.284;2023-03-01T04:22:04;5.93;;;3.67;;
30818;SDS011;17546;42.674;23.284;2023-03-01T04:24:35;4.00;;;3.08;;
30818;SDS011;17546;42.674;23.284;2023-03-01T04:27:01;4.32;;;3.00;;
30818;SDS011;17546;42.674;23.284;2023-03-01T04:29:26;5.30;;;3.35;;
30818;SDS011;17546;42.674;23.284;2023-03-01T04:31:52;7.65;;;3.47;;
30818;SDS011;17546;42.674;23.284;2023-03-01T04:34:18;7.47;;;3.17;;
30818;SDS011;17546;42.674;23.284;2023-03-01T04:36:43;4.60;;;3.08;;
30818;SDS011;17546;42.674;23.284;2023-03-01T04:39:09;5.97;;;3.03;;
30818;SDS011;17546;42.674;23.284;2023-03-01T04:41:37;3.53;;;3.00;;
30818;SDS011;17546;42.674;23.284;2023-03-01T04:44:08;4.90;;;3.45;;
30818;SDS011;17546;42.674;23.284;2023-03-01T04:46:36;5.13;;;3.35;;
30818;SDS011;17546;42.674;23.284;2023-03-01T04:49:02;5.22;;;3.50;;
30818;SDS011;17546;42.674;23.284;2023-03-01T04:51:28;4.75;;;3.30;;
30818;SDS011;17546;42.674;23.284;2023-03-01T04:53:54;4.35;;;3.13;;
30818;SDS011;17546;42.674;23.284;2023-03-01T04:56:20;5.47;;;3.38;;
30818;SDS011;17546;42.674;23.284;2023-03-01T04:58:48;4.57;;;3.33;;
30818;SDS011;17546;42.674;23.284;2023-03-01T05:01:15;5.95;;;3.60;;
30818;SDS011;17546;42.674;23.284;2023-03-01T05:03:49;6.25;;;3.47;;
30818;SDS011;17546;42.674;23.284;2023-03-01T05:06:16;7.15;;;3.38;;
30818;SDS011;17546;42.674;23.284;2023-03-01T05:08:43;7.50;;;3.63;;
30818;SDS011;17546;42.674;23.284;2023-03-01T05:11:09;5.50;;;3.30;;
30818;SDS011;17546;42.674;23.284;2023-03-01T05:13:36;5.47;;;3.42;;
30818;SDS011;17546;42.674;23.284;2023-03-01T05:16:03;7.45;;;4.03;;
30818;SDS011;17546;42.674;23.284;2023-03-01T05:18:30;5.47;;;3.40;;
30818;SDS011;17546;42.674;23.284;2023-03-01T05:21:01;4.68;;;3.17;;
30818;SDS011;17546;42.674;23.284;2023-03-01T05:23:45;5.50;;;3.42;;
30818;SDS011;17546;42.674;23.284;2023-03-01T05:26:12;5.20;;;3.08;;
30818;SDS011;17546;42.674;23.284;2023-03-01T05:28:38;7.80;;;4.35;;
30818;SDS011;17546;42.674;23.284;2023-03-01T05:31:05;6.88;;;3.75;;
30818;SDS011;17546;42.674;23.284;2023-03-01T05:33:37;6.35;;;3.80;;
30818;SDS011;17546;42.674;23.284;2023-03-01T05:36:04;5.32;;;3.55;;
30818;SDS011;17546;42.674;23.284;2023-03-01T05:38:31;4.68;;;3.33;;
30818;SDS011;17546;42.674;23.284;2023-03-01T05:40:56;6.63;;;3.00;;
30818;SDS011;17546;42.674;23.284;2023-03-01T05:43:22;7.07;;;3.55;;
30818;SDS011;17546;42.674;23.284;2023-03-01T05:45:47;5.72;;;3.53;;
30818;SDS011;17546;42.674;23.284;2023-03-01T05:48:13;4.53;;;3.05;;
30818;SDS011;17546;42.674;23.284;2023-03-01T05:50:40;4.38;;;2.90;;
30818;SDS011;17546;42.674;23.284;2023-03-01T05:53:14;4.57;;;2.97;;
30818;SDS011;17546;42.674;23.284;2023-03-01T05:55:47;6.90;;;3.20;;
30818;SDS011;17546;42.674;23.284;2023-03-01T05:58:13;4.28;;;3.15;;
30818;SDS011;17546;42.674;23.284;2023-03-01T06:00:41;5.45;;;3.03;;
30818;SDS011;17546;42.674;23.284;2023-03-01T06:03:09;4.60;;;3.17;;
30818;SDS011;17546;42.674;23.284;2023-03-01T06:05:36;13.45;;;3.35;;
30818;SDS011;17546;42.674;23.284;2023-03-01T06:08:01;7.85;;;3.00;;
30818;SDS011;17546;42.674;23.284;2023-03-01T06:10:28;8.18;;;3.00;;
30818;SDS011;17546;42.674;23.284;2023-03-01T06:12:54;11.63;;;3.55;;
30818;SDS011;17546;42.674;23.284;2023-03-01T06:15:20;6.22;;;3.80;;
30818;SDS011;17546;42.674;23.284;2023-03-01T06:17:47;6.55;;;3.90;;
30818;SDS011;17546;42.674;23.284;2023-03-01T06:22:40;8.35;;;4.22;;
30818;SDS011;17546;42.674;23.284;2023-03-01T06:25:10;6.55;;;4.13;;
30818;SDS011;17546;42.674;23.284;2023-03-01T06:27:37;6.53;;;3.75;;
30818;SDS011;17546;42.674;23.284;2023-03-01T06:30:03;6.90;;;3.95;;
30818;SDS011;17546;42.674;23.284;2023-03-01T06:32:28;6.93;;;3.90;;
30818;SDS011;17546;42.674;23.284;2023-03-01T06:34:55;6.25;;;3.47;;
30818;SDS011;17546;42.674;23.284;2023-03-01T06:37:20;8.25;;;4.30;;
30818;SDS011;17546;42.674;23.284;2023-03-01T06:39:46;6.90;;;3.78;;
30818;SDS011;17546;42.674;23.284;2023-03-01T06:42:11;6.38;;;3.95;;
30818;SDS011;17546;42.674;23.284;2023-03-01T06:44:37;9.52;;;4.35;;
30818;SDS011;17546;42.674;23.284;2023-03-01T06:47:02;7.53;;;3.78;;
30818;SDS011;17546;42.674;23.284;2023-03-01T06:49:28;8.23;;;4.10;;
30818;SDS011;17546;42.674;23.284;2023-03-01T06:51:55;7.18;;;3.78;;
30818;SDS011;17546;42.674;23.284;2023-03-01T06:54:20;10.05;;;3.70;;
30818;SDS011;17546;42.674;23.284;2023-03-01T06:56:47;11.20;;;3.85;;
30818;SDS011;17546;42.674;23.284;2023-03-01T06:59:16;12.75;;;4.25;;
30818;SDS011;17546;42.674;23.284;2023-03-01T07:01:42;10.98;;;3.63;;
30818;SDS011;17546;42.674;23.284;2023-03-01T07:04:08;6.10;;;3.53;;
30818;SDS011;17546;42.674;23.284;2023-03-01T07:06:34;8.20;;;3.72;;
30818;SDS011;17546;42.674;23.284;2023-03-01T07:09:00;7.35;;;4.35;;
30818;SDS011;17546;42.674;23.284;2023-03-01T07:11:25;8.63;;;3.83;;
30818;SDS011;17546;42.674;23.284;2023-03-01T07:13:51;9.68;;;4.03;;
30818;SDS011;17546;42.674;23.284;2023-03-01T07:16:16;9.13;;;3.33;;
30818;SDS011;17546;42.674;23.284;2023-03-01T07:18:42;8.20;;;3.78;;
30818;SDS011;17546;42.674;23.284;2023-03-01T07:21:07;9.95;;;3.42;;
30818;SDS011;17546;42.674;23.284;2023-03-01T07:23:36;9.23;;;3.83;;
30818;SDS011;17546;42.674;23.284;2023-03-01T07:26:02;10.60;;;3.53;;
30818;SDS011;17546;42.674;23.284;2023-03-01T07:28:27;11.07;;;4.63;;
30818;SDS011;17546;42.674;23.284;2023-03-01T07:30:53;5.63;;;3.67;;
30818;SDS011;17546;42.674;23.284;2023-03-01T07:33:19;6.70;;;3.30;;
30818;SDS011;17546;42.674;23.284;2023-03-01T07:35:45;6.43;;;3.10;;
30818;SDS011;17546;42.674;23.284;2023-03-01T07:38:10;6.45;;;3.15;;
30818;SDS011;17546;42.674;23.284;2023-03-01T07:40:36;7.35;;;3.60;;
30818;SDS011;17546;42.674;23.284;2023-03-01T07:43:01;7.97;;;3.97;;
30818;SDS011;17546;42.674;23.284;2023-03-01T07:45:27;7.78;;;3.50;;
30818;SDS011;17546;42.674;23.284;2023-03-01T07:47:54;6.93;;;3.63;;
30818;SDS011;17546;42.674;23.284;2023-03-01T07:50:20;5.80;;;3.20;;
30818;SDS011;17546;42.674;23.284;2023-03-01T07:52:46;5.88;;;3.22;;
30818;SDS011;17546;42.674;23.284;2023-03-01T07:55:13;7.93;;;3.30;;
30818;SDS011;17546;42.674;23.284;2023-03-01T07:57:39;8.15;;;3.50;;
30818;SDS011;17546;42.674;23.284;2023-03-01T08:00:04;5.25;;;3.10;;
30818;SDS011;17546;42.674;23.284;2023-03-01T08:02:31;7.68;;;3.53;;
30818;SDS011;17546;42.674;23.284;2023-03-01T08:04:57;9.48;;;3.40;;
30818;SDS011;17546;42.674;23.284;2023-03-01T08:07:22;8.93;;;3.08;;
30818;SDS011;17546;42.674;23.284;2023-03-01T08:09:47;7.63;;;2.95;;
30818;SDS011;17546;42.674;23.284;2023-03-01T08:12:13;9.95;;;3.08;;
30818;SDS011;17546;42.674;23.284;2023-03-01T08:14:38;9.07;;;3.50;;
30818;SDS011;17546;42.674;23.284;2023-03-01T08:17:04;6.68;;;3.10;;
30818;SDS011;17546;42.674;23.284;2023-03-01T08:19:29;8.32;;;3.05;;
30818;SDS011;17546;42.674;23.284;2023-03-01T08:21:55;6.60;;;2.92;;
30818;SDS011;17546;42.674;23.284;2023-03-01T08:24:23;8.75;;;4.53;;
30818;SDS011;17546;42.674;23.284;2023-03-01T08:26:49;8.15;;;5.28;;
30818;SDS011;17546;42.674;23.284;2023-03-01T08:29:15;7.97;;;4.60;;
30818;SDS011;17546;42.674;23.284;2023-03-01T08:31:41;12.77;;;5.07;;
30818;SDS011;17546;42.674;23.284;2023-03-01T08:34:08;7.00;;;4.28;;
30818;SDS011;17546;42.674;23.284;2023-03-01T08:36:37;8.45;;;5.13;;
30818;SDS011;17546;42.674;23.284;2023-03-01T08:39:05;13.05;;;4.78;;
30818;SDS011;17546;42.674;23.284;2023-03-01T08:41:32;6.93;;;4.70;;
30818;SDS011;17546;42.674;23.284;2023-03-01T08:43:57;5.53;;;4.00;;
30818;SDS011;17546;42.674;23.284;2023-03-01T08:46:33;8.00;;;3.70;;
30818;SDS011;17546;42.674;23.284;2023-03-01T08:49:05;10.27;;;3.95;;
30818;SDS011;17546;42.674;23.284;2023-03-01T08:51:35;6.20;;;4.05;;
30818;SDS011;17546;42.674;23.284;2023-03-01T08:54:05;5.07;;;3.58;;
30818;SDS011;17546;42.674;23.284;2023-03-01T08:56:32;8.23;;;3.42;;
30818;SDS011;17546;42.674;23.284;2023-03-01T08:58:58;12.57;;;3.45;;
30818;SDS011;17546;42.674;23.284;2023-03-01T09:01:23;8.38;;;3.45;;
30818;SDS011;17546;42.674;23.284;2023-03-01T09:03:49;4.65;;;2.90;;
30818;SDS011;17546;42.674;23.284;2023-03-01T09:06:26;15.20;;;3.25;;
30818;SDS011;17546;42.674;23.284;2023-03-01T09:08:54;6.25;;;3.13;;
30818;SDS011;17546;42.674;23.284;2023-03-01T09:11:20;5.57;;;3.67;;
30818;SDS011;17546;42.674;23.284;2023-03-01T09:13:49;6.80;;;3.42;;
30818;SDS011;17546;42.674;23.284;2023-03-01T09:16:16;10.70;;;3.42;;
30818;SDS011;17546;42.674;23.284;2023-03-01T09:18:48;7.10;;;3.33;;
30818;SDS011;17546;42.674;23.284;2023-03-01T09:21:15;8.32;;;3.40;;
30818;SDS011;17546;42.674;23.284;2023-03-01T09:23:43;4.97;;;3.42;;
30818;SDS011;17546;42.674;23.284;2023-03-01T09:26:16;3.80;;;2.90;;
30818;SDS011;17546;42.674;23.284;2023-03-01T09:28:45;4.15;;;3.00;;
30818;SDS011;17546;42.674;23.284;2023-03-01T09:31:13;12.23;;;3.20;;
30818;SDS011;17546;42.674;23.284;2023-03-01T09:33:41;5.93;;;3.28;;
30818;SDS011;17546;42.674;23.284;2023-03-01T09:36:11;5.57;;;3.25;;
30818;SDS011;17546;42.674;23.284;2023-03-01T09:38:38;8.05;;;2.83;;
30818;SDS011;17546;42.674;23.284;2023-03-01T09:41:18;7.55;;;3.40;;
30818;SDS011;17546;42.674;23.284;2023-03-01T09:44:11;4.72;;;2.72;;
30818;SDS011;17546;42.674;23.284;2023-03-01T09:46:47;4.25;;;2.80;;
30818;SDS011;17546;42.674;23.284;2023-03-01T09:49:28;6.15;;;3.10;;
30818;SDS011;17546;42.674;23.284;2023-03-01T09:54:57;5.80;;;3.67;;
30818;SDS011;17546;42.674;23.284;2023-03-01T10:03:09;4.32;;;2.80;;
30818;SDS011;17546;42.674;23.284;2023-03-01T10:05:47;6.13;;;2.45;;
30818;SDS011;17546;42.674;23.284;2023-03-01T10:08:40;6.57;;;2.13;;
30818;SDS011;17546;42.674;23.284;2023-03-01T10:11:21;6.57;;;2.08;;
30818;SDS011;17546;42.674;23.284;2023-03-01T10:14:06;7.32;;;2.22;;
30818;SDS011;17546;42.674;23.284;2023-03-01T10:19:02;5.45;;;2.30;;
30818;SDS011;17546;42.674;23.284;2023-03-01T10:21:30;3.53;;;2.20;;
30818;SDS011;17546;42.674;23.284;2023-03-01T10:24:05;4.72;;;2.80;;
30818;SDS011;17546;42.674;23.284;2023-03-01T10:29:12;4.85;;;2.70;;
30818;SDS011;17546;42.674;23.284;2023-03-01T10:34:47;7.47;;;3.03;;
30818;SDS011;17546;42.674;23.284;2023-03-01T10:36:57;7.10;;;2.90;;
30818;SDS011;17546;42.674;23.284;2023-03-01T10:39:31;7.63;;;2.72;;
30818;SDS011;17546;42.674;23.284;2023-03-01T10:42:00;3.88;;;2.83;;
30818;SDS011;17546;42.674;23.284;2023-03-01T10:44:35;5.05;;;3.20;;
30818;SDS011;17546;42.674;23.284;2023-03-01T10:47:25;5.68;;;3.33;;
30818;SDS011;17546;42.674;23.284;2023-03-01T10:52:18;4.53;;;2.97;;
30818;SDS011;17546;42.674;23.284;2023-03-01T10:57:39;6.72;;;3.20;;
30818;SDS011;17546;42.674;23.284;2023-03-01T11:00:16;5.95;;;3.08;;
30818;SDS011;17546;42.674;23.284;2023-03-01T11:02:48;10.13;;;3.80;;
30818;SDS011;17546;42.674;23.284;2023-03-01T11:05:20;8.75;;;3.50;;
30818;SDS011;17546;42.674;23.284;2023-03-01T11:10:24;13.95;;;4.50;;
30818;SDS011;17546;42.674;23.284;2023-03-01T11:12:52;22.60;;;3.90;;
30818;SDS011;17546;42.674;23.284;2023-03-01T11:15:20;9.93;;;3.72;;
30818;SDS011;17546;42.674;23.284;2023-03-01T11:17:49;6.82;;;3.65;;
30818;SDS011;17546;42.674;23.284;2023-03-01T11:25:26;10.35;;;3.72;;
30818;SDS011;17546;42.674;23.284;2023-03-01T11:27:56;6.95;;;3.33;;
30818;SDS011;17546;42.674;23.284;2023-03-01T11:30:27;5.72;;;2.85;;
30818;SDS011;17546;42.674;23.284;2023-03-01T11:35:41;12.77;;;3.72;;
30818;SDS011;17546;42.674;23.284;2023-03-01T11:38:24;7.55;;;3.50;;
30818;SDS011;17546;42.674;23.284;2023-03-01T11:52:06;4.28;;;3.33;;
30818;SDS011;17546;42.674;23.284;2023-03-01T12:10:47;6.07;;;3.63;;
30818;SDS011;17546;42.674;23.284;2023-03-01T12:30:16;5.32;;;3.67;;
30818;SDS011;17546;42.674;23.284;2023-03-01T12:46:10;7.10;;;3.88;;
30818;SDS011;17546;42.674;23.284;2023-03-01T12:51:24;10.68;;;3.80;;
30818;SDS011;17546;42.674;23.284;2023-03-01T12:53:54;8.07;;;3.92;;
30818;SDS011;17546;42.674;23.284;2023-03-01T12:56:27;8.18;;;4.22;;
30818;SDS011;17546;42.674;23.284;2023-03-01T12:59:25;5.38;;;3.83;;
30818;SDS011;17546;42.674;23.284;2023-03-01T13:05:07;10.32;;;4.13;;
30818;SDS011;17546;42.674;23.284;2023-03-01T13:07:44;5.70;;;4.28;;
30818;SDS011;17546;42.674;23.284;2023-03-01T13:13:14;6.22;;;3.92;;
30818;SDS011;17546;42.674;23.284;2023-03-01T13:15:47;18.08;;;4.93;;
30818;SDS011;17546;42.674;23.284;2023-03-01T13:28:35;9.43;;;4.47;;
30818;SDS011;17546;42.674;23.284;2023-03-01T13:38:55;6.15;;;3.92;;
30818;SDS011;17546;42.674;23.284;2023-03-01T13:44:48;9.02;;;4.97;;
30818;SDS011;17546;42.674;23.284;2023-03-01T13:46:50;8.05;;;4.50;;
30818;SDS011;17546;42.674;23.284;2023-03-01T13:49:21;10.43;;;5.00;;
30818;SDS011;17546;42.674;23.284;2023-03-01T13:51:50;6.72;;;4.15;;
30818;SDS011;17546;42.674;23.284;2023-03-01T13:54:18;12.43;;;4.65;;
30818;SDS011;17546;42.674;23.284;2023-03-01T13:56:54;19.40;;;6.43;;
30818;SDS011;17546;42.674;23.284;2023-03-01T13:59:21;9.73;;;5.25;;
30818;SDS011;17546;42.674;23.284;2023-03-01T14:04:30;6.55;;;4.32;;
30818;SDS011;17546;42.674;23.284;2023-03-01T14:09:43;7.65;;;3.72;;
30818;SDS011;17546;42.674;23.284;2023-03-01T14:14:38;11.35;;;5.13;;
30818;SDS011;17546;42.674;23.284;2023-03-01T14:20:16;24.35;;;14.85;;
30818;SDS011;17546;42.674;23.284;2023-03-01T14:22:44;10.55;;;6.68;;
30818;SDS011;17546;42.674;23.284;2023-03-01T14:27:59;7.90;;;4.18;;
30818;SDS011;17546;42.674;23.284;2023-03-01T14:33:01;10.32;;;4.60;;
30818;SDS011;17546;42.674;23.284;2023-03-01T14:35:30;7.35;;;4.57;;
30818;SDS011;17546;42.674;23.284;2023-03-01T14:37:57;7.18;;;4.38;;
30818;SDS011;17546;42.674;23.284;2023-03-01T14:40:24;11.32;;;3.88;;
30818;SDS011;17546;42.674;23.284;2023-03-01T14:42:56;7.88;;;3.88;;
30818;SDS011;17546;42.674;23.284;2023-03-01T14:45:24;11.13;;;4.53;;
30818;SDS011;17546;42.674;23.284;2023-03-01T14:47:52;8.63;;;4.30;;
30818;SDS011;17546;42.674;23.284;2023-03-01T14:52:56;9.32;;;4.22;;
30818;SDS011;17546;42.674;23.284;2023-03-01T14:57:52;8.05;;;3.97;;
30818;SDS011;17546;42.674;23.284;2023-03-01T15:02:43;7.50;;;3.20;;
30818;SDS011;17546;42.674;23.284;2023-03-01T15:05:13;8.05;;;3.22;;
30818;SDS011;17546;42.674;23.284;2023-03-01T15:07:41;10.88;;;3.53;;
30818;SDS011;17546;42.674;23.284;2023-03-01T15:10:55;9.77;;;3.63;;
30818;SDS011;17546;42.674;23.284;2023-03-01T15:13:12;14.75;;;3.80;;
30818;SDS011;17546;42.674;23.284;2023-03-01T15:15:42;8.15;;;3.70;;
30818;SDS011;17546;42.674;23.284;2023-03-01T15:18:15;8.68;;;3.55;;
30818;SDS011;17546;42.674;23.284;2023-03-01T15:20:47;11.40;;;3.60;;
30818;SDS011;17546;42.674;23.284;2023-03-01T15:23:32;23.77;;;5.18;;
30818;SDS011;17546;42.674;23.284;2023-03-01T15:25:57;11.95;;;4.80;;
30818;SDS011;17546;42.674;23.284;2023-03-01T15:28:24;10.07;;;4.40;;
30818;SDS011;17546;42.674;23.284;2023-03-01T15:30:56;11.90;;;4.53;;
30818;SDS011;17546;42.674;23.284;2023-03-01T15:33:29;10.35;;;4.63;;
30818;SDS011;17546;42.674;23.284;2023-03-01T15:35:57;13.82;;;5.63;;
30818;SDS011;17546;42.674;23.284;2023-03-01T15:43:56;12.13;;;4.65;;
30818;SDS011;17546;42.674;23.284;2023-03-01T15:46:24;11.35;;;4.40;;
30818;SDS011;17546;42.674;23.284;2023-03-01T15:48:56;7.47;;;4.95;;
30818;SDS011;17546;42.674;23.284;2023-03-01T15:51:44;11.55;;;4.75;;
30818;SDS011;17546;42.674;23.284;2023-03-01T15:54:14;9.55;;;5.00;;
30818;SDS011;17546;42.674;23.284;2023-03-01T15:56:44;9.60;;;5.20;;
30818;SDS011;17546;42.674;23.284;2023-03-01T15:59:09;14.70;;;4.93;;
30818;SDS011;17546;42.674;23.284;2023-03-01T16:01:38;12.95;;;4.80;;
30818;SDS011;17546;42.674;23.284;2023-03-01T16:04:03;9.43;;;4.63;;
30818;SDS011;17546;42.674;23.284;2023-03-01T16:06:29;9.40;;;5.22;;
30818;SDS011;17546;42.674;23.284;2023-03-01T16:08:54;8.40;;;4.95;;
30818;SDS011;17546;42.674;23.284;2023-03-01T16:11:20;10.10;;;4.85;;
30818;SDS011;17546;42.674;23.284;2023-03-01T16:13:46;8.38;;;4.93;;
30818;SDS011;17546;42.674;23.284;2023-03-01T16:16:12;9.82;;;4.53;;
30818;SDS011;17546;42.674;23.284;2023-03-01T16:18:41;11.13;;;4.45;;
30818;SDS011;17546;42.674;23.284;2023-03-01T16:21:10;13.25;;;5.90;;
30818;SDS011;17546;42.674;23.284;2023-03-01T16:23:38;9.45;;;5.13;;
30818;SDS011;17546;42.674;23.284;2023-03-01T16:26:03;11.20;;;5.07;;
30818;SDS011;17546;42.674;23.284;2023-03-01T16:28:29;7.88;;;4.05;;
30818;SDS011;17546;42.674;23.284;2023-03-01T16:30:54;7.95;;;4.43;;
30818;SDS011;17546;42.674;23.284;2023-03-01T16:33:19;7.25;;;4.60;;
30818;SDS011;17546;42.674;23.284;2023-03-01T16:35:45;11.73;;;5.20;;
30818;SDS011;17546;42.674;23.284;2023-03-01T16:38:10;7.72;;;4.25;;
30818;SDS011;17546;42.674;23.284;2023-03-01T16:40:36;7.53;;;4.53;;
30818;SDS011;17546;42.674;23.284;2023-03-01T16:43:02;17.33;;;5.43;;
30818;SDS011;17546;42.674;23.284;2023-03-01T16:45:28;13.35;;;5.95;;
30818;SDS011;17546;42.674;23.284;2023-03-01T16:48:00;23.35;;;5.82;;
30818;SDS011;17546;42.674;23.284;2023-03-01T16:50:26;9.65;;;5.18;;
30818;SDS011;17546;42.674;23.284;2023-03-01T16:52:52;13.15;;;5.13;;
30818;SDS011;17546;42.674;23.284;2023-03-01T16:55:17;14.18;;;6.47;;
30818;SDS011;17546;42.674;23.284;2023-03-01T16:57:43;10.27;;;4.75;;
30818;SDS011;17546;42.674;23.284;2023-03-01T17:00:10;12.85;;;5.65;;
30818;SDS011;17546;42.674;23.284;2023-03-01T17:02:37;11.43;;;5.10;;
30818;SDS011;17546;42.674;23.284;2023-03-01T17:05:03;7.50;;;4.50;;
30818;SDS011;17546;42.674;23.284;2023-03-01T17:07:31;10.07;;;5.28;;
30818;SDS011;17546;42.674;23.284;2023-03-01T17:10:02;8.80;;;4.78;;
30818;SDS011;17546;42.674;23.284;2023-03-01T17:12:29;8.80;;;4.43;;
30818;SDS011;17546;42.674;23.284;2023-03-01T17:14:54;14.27;;;5.32;;
30818;SDS011;17546;42.674;23.284;2023-03-01T17:17:20;20.90;;;5.68;;
30818;SDS011;17546;42.674;23.284;2023-03-01T17:19:45;10.45;;;5.18;;
30818;SDS011;17546;42.674;23.284;2023-03-01T17:22:11;9.05;;;4.50;;